Aviation Digital Data Service (ADDS)

Output produced by METARs form (2105 UTC 08 August 2020)
found at http://www.aviationweather.gov/metar/data/
 
METAR text: RORY 082000Z AUTO 15014KT 9999 FEW018 SCT050 BKN070 27/26 Q1007
Conditions at: RORY (YORON ISLAND , JP) observed 2000 UTC 08 August 2020
Temperature: 27.0°C (81°F)
Dewpoint: 26.0°C (79°F) [RH = 94%]
Pressure (altimeter): 29.73 inches Hg (1007.0 mb)
Winds: from the SSE (150 degrees) at 16 MPH (14 knots; 7.2 m/s)
Visibility: 6 or more miles (10+ km)
Ceiling: 7000 feet AGL
Clouds: few clouds at 1800 feet AGL
scattered clouds at 5000 feet AGL
broken clouds at 7000 feet AGL
Weather: no significant weather observed at this time

METAR text: RORY 081900Z AUTO 15020KT 9999 FEW017 BKN070 //////TCU 27/25 Q1007
Conditions at: RORY (YORON ISLAND , JP) observed 1900 UTC 08 August 2020
Temperature: 27.0°C (81°F)
Dewpoint: 25.0°C (77°F) [RH = 89%]
Pressure (altimeter): 29.73 inches Hg (1007.0 mb)
Winds: from the SSE (150 degrees) at 23 MPH (20 knots; 10.3 m/s)
Visibility: 6 or more miles (10+ km)
Ceiling: 7000 feet AGL
Clouds: few clouds at 1700 feet AGL
broken clouds at 7000 feet AGL
Weather: no significant weather observed at this time

METAR text: RORY 081800Z AUTO 16019G33KT 9999 FEW011 SCT050 BKN060 //////TCU 27/25 Q1007
Conditions at: RORY (YORON ISLAND , JP) observed 1800 UTC 08 August 2020
Temperature: 27.0°C (81°F)
Dewpoint: 25.0°C (77°F) [RH = 89%]
Pressure (altimeter): 29.73 inches Hg (1007.0 mb)
Winds: from the SSE (160 degrees) at 22 MPH (19 knots; 9.8 m/s)
gusting to 38 MPH (33 knots; 17.0 m/s)
Visibility: 6 or more miles (10+ km)
Ceiling: 6000 feet AGL
Clouds: few clouds at 1100 feet AGL
scattered clouds at 5000 feet AGL
broken clouds at 6000 feet AGL
Weather: no significant weather observed at this time

METAR text: RORY 081700Z AUTO 14014KT 9999 FEW019 SCT027 BKN044 //////TCU 28/25 Q1008
Conditions at: RORY (YORON ISLAND , JP) observed 1700 UTC 08 August 2020
Temperature: 28.0°C (82°F)
Dewpoint: 25.0°C (77°F) [RH = 84%]
Pressure (altimeter): 29.76 inches Hg (1008.0 mb)
Winds: from the SE (140 degrees) at 16 MPH (14 knots; 7.2 m/s)
Visibility: 6 or more miles (10+ km)
Ceiling: 4400 feet AGL
Clouds: few clouds at 1900 feet AGL
scattered clouds at 2700 feet AGL
broken clouds at 4400 feet AGL
Weather: no significant weather observed at this time

METAR text: RORY 081600Z AUTO 15013KT 9999 NSC 28/25 Q1008
Conditions at: RORY (YORON ISLAND , JP) observed 1600 UTC 08 August 2020
Temperature: 28.0°C (82°F)
Dewpoint: 25.0°C (77°F) [RH = 84%]
Pressure (altimeter): 29.76 inches Hg (1008.0 mb)
Winds: from the SSE (150 degrees) at 15 MPH (13 knots; 6.7 m/s)
Visibility: 6 or more miles (10+ km)
Ceiling: at least 12,000 feet AGL
Clouds: sky clear below 12,000 feet AGL
Weather: no significant weather observed at this time

METAR text: RORY 081500Z AUTO 15015KT 9999 FEW020 SCT130 BKN170 //////TCU 28/24 Q1009
Conditions at: RORY (YORON ISLAND , JP) observed 1500 UTC 08 August 2020
Temperature: 28.0°C (82°F)
Dewpoint: 24.0°C (75°F) [RH = 79%]
Pressure (altimeter): 29.79 inches Hg (1009.0 mb)
Winds: from the SSE (150 degrees) at 17 MPH (15 knots; 7.7 m/s)
Visibility: 6 or more miles (10+ km)
Ceiling: 17000 feet AGL
Clouds: few clouds at 2000 feet AGL
scattered clouds at 13000 feet AGL
broken clouds at 17000 feet AGL
Weather: no significant weather observed at this time

METAR text: RORY 081400Z AUTO 16014G24KT 9999 -RA FEW008 SCT015 BKN050 //////TCU 27/26 Q1009
Conditions at: RORY (YORON ISLAND , JP) observed 1400 UTC 08 August 2020
Temperature: 27.0°C (81°F)
Dewpoint: 26.0°C (79°F) [RH = 94%]
Pressure (altimeter): 29.79 inches Hg (1009.0 mb)
Winds: from the SSE (160 degrees) at 16 MPH (14 knots; 7.2 m/s)
gusting to 28 MPH (24 knots; 12.3 m/s)
Visibility: 6 or more miles (10+ km)
Ceiling: 5000 feet AGL
Clouds: few clouds at 800 feet AGL
scattered clouds at 1500 feet AGL
broken clouds at 5000 feet AGL
Weather: -RA  (light rain)

METAR text: RORY 081300Z AUTO 14017G27KT 9999 -RA SCT022 SCT026 BKN036 //////TCU 29/25 Q1009
Conditions at: RORY (YORON ISLAND , JP) observed 1300 UTC 08 August 2020
Temperature: 29.0°C (84°F)
Dewpoint: 25.0°C (77°F) [RH = 79%]
Pressure (altimeter): 29.79 inches Hg (1009.0 mb)
Winds: from the SE (140 degrees) at 20 MPH (17 knots; 8.7 m/s)
gusting to 31 MPH (27 knots; 13.9 m/s)
Visibility: 6 or more miles (10+ km)
Ceiling: 3600 feet AGL
Clouds: scattered clouds at 2200 feet AGL
scattered clouds at 2600 feet AGL
broken clouds at 3600 feet AGL
Weather: -RA  (light rain)

METAR text: RORY 081200Z AUTO 14017KT 9999 FEW023 SCT028 29/25 Q1009
Conditions at: RORY (YORON ISLAND , JP) observed 1200 UTC 08 August 2020
Temperature: 29.0°C (84°F)
Dewpoint: 25.0°C (77°F) [RH = 79%]
Pressure (altimeter): 29.79 inches Hg (1009.0 mb)
Winds: from the SE (140 degrees) at 20 MPH (17 knots; 8.7 m/s)
Visibility: 6 or more miles (10+ km)
Ceiling: at least 12,000 feet AGL
Clouds: few clouds at 2300 feet AGL
scattered clouds at 2800 feet AGL
Weather: no significant weather observed at this time

METAR text: RORY 081100Z AUTO 14014KT 9999 NCD 29/24 Q1008
Conditions at: RORY (YORON ISLAND , JP) observed 1100 UTC 08 August 2020
Temperature: 29.0°C (84°F)
Dewpoint: 24.0°C (75°F) [RH = 74%]
Pressure (altimeter): 29.76 inches Hg (1008.0 mb)
Winds: from the SE (140 degrees) at 16 MPH (14 knots; 7.2 m/s)
Visibility: 6 or more miles (10+ km)
Ceiling: at least 12,000 feet AGL
Clouds: sky clear below 12,000 feet AGL
Weather: no significant weather observed at this time

METAR text: RORY 081000Z AUTO 14011KT 9999 FEW018 29/24 Q1008
Conditions at: RORY (YORON ISLAND , JP) observed 1000 UTC 08 August 2020
Temperature: 29.0°C (84°F)
Dewpoint: 24.0°C (75°F) [RH = 74%]
Pressure (altimeter): 29.76 inches Hg (1008.0 mb)
Winds: from the SE (140 degrees) at 13 MPH (11 knots; 5.7 m/s)
Visibility: 6 or more miles (10+ km)
Ceiling: at least 12,000 feet AGL
Clouds: few clouds at 1800 feet AGL
Weather: no significant weather observed at this time

METAR text: RORY 080900Z AUTO 14011KT 9999 FEW018 29/25 Q1008
Conditions at: RORY (YORON ISLAND , JP) observed 0900 UTC 08 August 2020
Temperature: 29.0°C (84°F)
Dewpoint: 25.0°C (77°F) [RH = 79%]
Pressure (altimeter): 29.76 inches Hg (1008.0 mb)
Winds: from the SE (140 degrees) at 13 MPH (11 knots; 5.7 m/s)
Visibility: 6 or more miles (10+ km)
Ceiling: at least 12,000 feet AGL
Clouds: few clouds at 1800 feet AGL
Weather: no significant weather observed at this time

METAR text: RORY 080800Z AUTO 14011KT 9999 NSC 30/25 Q1008
Conditions at: RORY (YORON ISLAND , JP) observed 0800 UTC 08 August 2020
Temperature: 30.0°C (86°F)
Dewpoint: 25.0°C (77°F) [RH = 75%]
Pressure (altimeter): 29.76 inches Hg (1008.0 mb)
Winds: from the SE (140 degrees) at 13 MPH (11 knots; 5.7 m/s)
Visibility: 6 or more miles (10+ km)
Ceiling: at least 12,000 feet AGL
Clouds: sky clear below 12,000 feet AGL
Weather: no significant weather observed at this time

METAR text: RORY 080700Z AUTO 16011KT 9999 NSC 30/25 Q1008
Conditions at: RORY (YORON ISLAND , JP) observed 0700 UTC 08 August 2020
Temperature: 30.0°C (86°F)
Dewpoint: 25.0°C (77°F) [RH = 75%]
Pressure (altimeter): 29.76 inches Hg (1008.0 mb)
Winds: from the SSE (160 degrees) at 13 MPH (11 knots; 5.7 m/s)
Visibility: 6 or more miles (10+ km)
Ceiling: at least 12,000 feet AGL
Clouds: sky clear below 12,000 feet AGL
Weather: no significant weather observed at this time

METAR text: RORY 080616Z AUTO 15014G25KT 130V190 9999 FEW011 SCT019 BKN027 28/25 Q1008 RMK A2978
Conditions at: RORY (YORON ISLAND , JP) observed 0616 UTC 08 August 2020
Temperature: 28.0°C (82°F)
Dewpoint: 25.0°C (77°F) [RH = 84%]
Pressure (altimeter): 29.76 inches Hg (1008.0 mb)
Winds: from the SSE (150 degrees) at 16 MPH (14 knots; 7.2 m/s)
gusting to 29 MPH (25 knots; 12.9 m/s)
Visibility: 6 or more miles (10+ km)
Ceiling: 2700 feet AGL
Clouds: few clouds at 1100 feet AGL
scattered clouds at 1900 feet AGL
broken clouds at 2700 feet AGL
Weather: no significant weather observed at this time

METAR text: RORY 080611Z AUTO 16014G25KT 1100 +RA BR FEW011 SCT019 BKN024 27/25 Q1008 RMK A2979 RI025
Conditions at: RORY (YORON ISLAND , JP) observed 0611 UTC 08 August 2020
Temperature: 27.0°C (81°F)
Dewpoint: 25.0°C (77°F) [RH = 89%]
Pressure (altimeter): 29.76 inches Hg (1008.0 mb)
Winds: from the SSE (160 degrees) at 16 MPH (14 knots; 7.2 m/s)
gusting to 29 MPH (25 knots; 12.9 m/s)
Visibility: 0.68 miles (1.09 km)
Ceiling: 2400 feet AGL
Clouds: few clouds at 1100 feet AGL
scattered clouds at 1900 feet AGL
broken clouds at 2400 feet AGL
Weather: +RA BR  (heavy rain, mist)

METAR text: RORY 080609Z AUTO 16013G25KT 1100 -RA BR FEW011 SCT019 BKN027 //////TCU 28/24 Q1008 RMK A2979 TCU 5KM SE MOV UNKNOWN
Conditions at: RORY (YORON ISLAND , JP) observed 0609 UTC 08 August 2020
Temperature: 28.0°C (82°F)
Dewpoint: 24.0°C (75°F) [RH = 79%]
Pressure (altimeter): 29.76 inches Hg (1008.0 mb)
Winds: from the SSE (160 degrees) at 15 MPH (13 knots; 6.7 m/s)
gusting to 29 MPH (25 knots; 12.9 m/s)
Visibility: 0.68 miles (1.09 km)
Ceiling: 2700 feet AGL
Clouds: few clouds at 1100 feet AGL
scattered clouds at 1900 feet AGL
broken clouds at 2700 feet AGL
Weather: -RA BR  (light rain, mist)

METAR text: RORY 080600Z AUTO 16010KT 9999 FEW023 SCT026 BKN050 //////TCU 30/25 Q1008
Conditions at: RORY (YORON ISLAND , JP) observed 0600 UTC 08 August 2020
Temperature: 30.0°C (86°F)
Dewpoint: 25.0°C (77°F) [RH = 75%]
Pressure (altimeter): 29.76 inches Hg (1008.0 mb)
Winds: from the SSE (160 degrees) at 12 MPH (10 knots; 5.1 m/s)
Visibility: 6 or more miles (10+ km)
Ceiling: 5000 feet AGL
Clouds: few clouds at 2300 feet AGL
scattered clouds at 2600 feet AGL
broken clouds at 5000 feet AGL
Weather: no significant weather observed at this time

METAR text: RORY 080500Z AUTO 15011KT 9999 FEW025 32/25 Q1008
Conditions at: RORY (YORON ISLAND , JP) observed 0500 UTC 08 August 2020
Temperature: 32.0°C (90°F)
Dewpoint: 25.0°C (77°F) [RH = 67%]
Pressure (altimeter): 29.76 inches Hg (1008.0 mb)
Winds: from the SSE (150 degrees) at 13 MPH (11 knots; 5.7 m/s)
Visibility: 6 or more miles (10+ km)
Ceiling: at least 12,000 feet AGL
Clouds: few clouds at 2500 feet AGL
Weather: no significant weather observed at this time

METAR text: RORY 080400Z AUTO 15012KT 9999 FEW027 //////TCU 32/25 Q1009
Conditions at: RORY (YORON ISLAND , JP) observed 0400 UTC 08 August 2020
Temperature: 32.0°C (90°F)
Dewpoint: 25.0°C (77°F) [RH = 67%]
Pressure (altimeter): 29.79 inches Hg (1009.0 mb)
Winds: from the SSE (150 degrees) at 14 MPH (12 knots; 6.2 m/s)
Visibility: 6 or more miles (10+ km)
Ceiling: at least 12,000 feet AGL
Clouds: few clouds at 2700 feet AGL
Weather: no significant weather observed at this time

METAR text: RORY 080300Z AUTO 15011KT 9999 -RA FEW021 SCT034 31/25 Q1009
Conditions at: RORY (YORON ISLAND , JP) observed 0300 UTC 08 August 2020
Temperature: 31.0°C (88°F)
Dewpoint: 25.0°C (77°F) [RH = 71%]
Pressure (altimeter): 29.79 inches Hg (1009.0 mb)
Winds: from the SSE (150 degrees) at 13 MPH (11 knots; 5.7 m/s)
Visibility: 6 or more miles (10+ km)
Ceiling: at least 12,000 feet AGL
Clouds: few clouds at 2100 feet AGL
scattered clouds at 3400 feet AGL
Weather: -RA  (light rain)

METAR text: RORY 080200Z AUTO 16006KT 130V220 9999 FEW019 32/26 Q1009
Conditions at: RORY (YORON ISLAND , JP) observed 0200 UTC 08 August 2020
Temperature: 32.0°C (90°F)
Dewpoint: 26.0°C (79°F) [RH = 71%]
Pressure (altimeter): 29.79 inches Hg (1009.0 mb)
Winds: from the SSE (160 degrees) at 7 MPH (6 knots; 3.1 m/s)
Visibility: 6 or more miles (10+ km)
Ceiling: at least 12,000 feet AGL
Clouds: few clouds at 1900 feet AGL
Weather: no significant weather observed at this time

METAR text: RORY 080100Z AUTO 16009KT 9999 NCD 31/26 Q1009
Conditions at: RORY (YORON ISLAND , JP) observed 0100 UTC 08 August 2020
Temperature: 31.0°C (88°F)
Dewpoint: 26.0°C (79°F) [RH = 75%]
Pressure (altimeter): 29.79 inches Hg (1009.0 mb)
Winds: from the SSE (160 degrees) at 10 MPH (9 knots; 4.6 m/s)
Visibility: 6 or more miles (10+ km)
Ceiling: at least 12,000 feet AGL
Clouds: sky clear below 12,000 feet AGL
Weather: no significant weather observed at this time

METAR text: RORY 080000Z AUTO 15009KT 9999 FEW017 30/26 Q1009
Conditions at: RORY (YORON ISLAND , JP) observed 0000 UTC 08 August 2020
Temperature: 30.0°C (86°F)
Dewpoint: 26.0°C (79°F) [RH = 79%]
Pressure (altimeter): 29.79 inches Hg (1009.0 mb)
Winds: from the SSE (150 degrees) at 10 MPH (9 knots; 4.6 m/s)
Visibility: 6 or more miles (10+ km)
Ceiling: at least 12,000 feet AGL
Clouds: few clouds at 1700 feet AGL
Weather: no significant weather observed at this time

METAR text: RORY 072300Z AUTO 16005KT 130V190 9999 NCD 30/25 Q1009
Conditions at: RORY (YORON ISLAND , JP) observed 2300 UTC 07 August 2020
Temperature: 30.0°C (86°F)
Dewpoint: 25.0°C (77°F) [RH = 75%]
Pressure (altimeter): 29.79 inches Hg (1009.0 mb)
Winds: from the SSE (160 degrees) at 6 MPH (5 knots; 2.6 m/s)
Visibility: 6 or more miles (10+ km)
Ceiling: at least 12,000 feet AGL
Clouds: sky clear below 12,000 feet AGL
Weather: no significant weather observed at this time

METAR text: RORY 072200Z AUTO 19004KT 9999 NCD 29/25 Q1009
Conditions at: RORY (YORON ISLAND , JP) observed 2200 UTC 07 August 2020
Temperature: 29.0°C (84°F)
Dewpoint: 25.0°C (77°F) [RH = 79%]
Pressure (altimeter): 29.79 inches Hg (1009.0 mb)
Winds: from the S (190 degrees) at 5 MPH (4 knots; 2.1 m/s)
Visibility: 6 or more miles (10+ km)
Ceiling: at least 12,000 feet AGL
Clouds: sky clear below 12,000 feet AGL
Weather: no significant weather observed at this time

METAR text: RORY 072100Z AUTO 21004KT 9999 NCD 28/26 Q1008
Conditions at: RORY (YORON ISLAND , JP) observed 2100 UTC 07 August 2020
Temperature: 28.0°C (82°F)
Dewpoint: 26.0°C (79°F) [RH = 89%]
Pressure (altimeter): 29.76 inches Hg (1008.0 mb)
Winds: from the SSW (210 degrees) at 5 MPH (4 knots; 2.1 m/s)
Visibility: 6 or more miles (10+ km)
Ceiling: at least 12,000 feet AGL
Clouds: sky clear below 12,000 feet AGL
Weather: no significant weather observed at this time

METAR text: RORY 072000Z AUTO 21005KT 170V250 9999 NCD 28/26 Q1008
Conditions at: RORY (YORON ISLAND , JP) observed 2000 UTC 07 August 2020
Temperature: 28.0°C (82°F)
Dewpoint: 26.0°C (79°F) [RH = 89%]
Pressure (altimeter): 29.76 inches Hg (1008.0 mb)
Winds: from the SSW (210 degrees) at 6 MPH (5 knots; 2.6 m/s)
Visibility: 6 or more miles (10+ km)
Ceiling: at least 12,000 feet AGL
Clouds: sky clear below 12,000 feet AGL
Weather: no significant weather observed at this time

METAR text: RORY 071900Z AUTO 18007KT 9999 SCT017 28/25 Q1008
Conditions at: RORY (YORON ISLAND , JP) observed 1900 UTC 07 August 2020
Temperature: 28.0°C (82°F)
Dewpoint: 25.0°C (77°F) [RH = 84%]
Pressure (altimeter): 29.76 inches Hg (1008.0 mb)
Winds: from the S (180 degrees) at 8 MPH (7 knots; 3.6 m/s)
Visibility: 6 or more miles (10+ km)
Ceiling: at least 12,000 feet AGL
Clouds: scattered clouds at 1700 feet AGL
Weather: no significant weather observed at this time

METAR text: RORY 071800Z AUTO 18009KT 160V220 9999 NCD 29/25 Q1009
Conditions at: RORY (YORON ISLAND , JP) observed 1800 UTC 07 August 2020
Temperature: 29.0°C (84°F)
Dewpoint: 25.0°C (77°F) [RH = 79%]
Pressure (altimeter): 29.79 inches Hg (1009.0 mb)
Winds: from the S (180 degrees) at 10 MPH (9 knots; 4.6 m/s)
Visibility: 6 or more miles (10+ km)
Ceiling: at least 12,000 feet AGL
Clouds: sky clear below 12,000 feet AGL
Weather: no significant weather observed at this time

METAR text: RORY 071700Z AUTO 18010KT 150V210 9999 FEW017 29/26 Q1010
Conditions at: RORY (YORON ISLAND , JP) observed 1700 UTC 07 August 2020
Temperature: 29.0°C (84°F)
Dewpoint: 26.0°C (79°F) [RH = 84%]
Pressure (altimeter): 29.82 inches Hg (1010.0 mb)
Winds: from the S (180 degrees) at 12 MPH (10 knots; 5.1 m/s)
Visibility: 6 or more miles (10+ km)
Ceiling: at least 12,000 feet AGL
Clouds: few clouds at 1700 feet AGL
Weather: no significant weather observed at this time

METAR text: RORY 071600Z AUTO 17011KT 9999 FEW021 SCT030 //////TCU 29/25 Q1010
Conditions at: RORY (YORON ISLAND , JP) observed 1600 UTC 07 August 2020
Temperature: 29.0°C (84°F)
Dewpoint: 25.0°C (77°F) [RH = 79%]
Pressure (altimeter): 29.82 inches Hg (1010.0 mb)
Winds: from the S (170 degrees) at 13 MPH (11 knots; 5.7 m/s)
Visibility: 6 or more miles (10+ km)
Ceiling: at least 12,000 feet AGL
Clouds: few clouds at 2100 feet AGL
scattered clouds at 3000 feet AGL
Weather: no significant weather observed at this time

METAR text: RORY 071500Z AUTO 17011KT 9999 SCT021 29/26 Q1011
Conditions at: RORY (YORON ISLAND , JP) observed 1500 UTC 07 August 2020
Temperature: 29.0°C (84°F)
Dewpoint: 26.0°C (79°F) [RH = 84%]
Pressure (altimeter): 29.85 inches Hg (1011.0 mb)
Winds: from the S (170 degrees) at 13 MPH (11 knots; 5.7 m/s)
Visibility: 6 or more miles (10+ km)
Ceiling: at least 12,000 feet AGL
Clouds: scattered clouds at 2100 feet AGL
Weather: no significant weather observed at this time

METAR text: RORY 071400Z AUTO 16010KT 9999 SCT023 29/25 Q1010
Conditions at: RORY (YORON ISLAND , JP) observed 1400 UTC 07 August 2020
Temperature: 29.0°C (84°F)
Dewpoint: 25.0°C (77°F) [RH = 79%]
Pressure (altimeter): 29.82 inches Hg (1010.0 mb)
Winds: from the SSE (160 degrees) at 12 MPH (10 knots; 5.1 m/s)
Visibility: 6 or more miles (10+ km)
Ceiling: at least 12,000 feet AGL
Clouds: scattered clouds at 2300 feet AGL
Weather: no significant weather observed at this time

METAR text: RORY 071300Z AUTO 16009KT 9999 FEW020 29/26 Q1011
Conditions at: RORY (YORON ISLAND , JP) observed 1300 UTC 07 August 2020
Temperature: 29.0°C (84°F)
Dewpoint: 26.0°C (79°F) [RH = 84%]
Pressure (altimeter): 29.85 inches Hg (1011.0 mb)
Winds: from the SSE (160 degrees) at 10 MPH (9 knots; 4.6 m/s)
Visibility: 6 or more miles (10+ km)
Ceiling: at least 12,000 feet AGL
Clouds: few clouds at 2000 feet AGL
Weather: no significant weather observed at this time

METAR text: RORY 071200Z AUTO 16010KT 9999 SCT021 BKN034 29/26 Q1011
Conditions at: RORY (YORON ISLAND , JP) observed 1200 UTC 07 August 2020
Temperature: 29.0°C (84°F)
Dewpoint: 26.0°C (79°F) [RH = 84%]
Pressure (altimeter): 29.85 inches Hg (1011.0 mb)
Winds: from the SSE (160 degrees) at 12 MPH (10 knots; 5.1 m/s)
Visibility: 6 or more miles (10+ km)
Ceiling: 3400 feet AGL
Clouds: scattered clouds at 2100 feet AGL
broken clouds at 3400 feet AGL
Weather: no significant weather observed at this time

METAR text: RORY 071100Z AUTO 15009KT 9999 FEW019 29/26 Q1010
Conditions at: RORY (YORON ISLAND , JP) observed 1100 UTC 07 August 2020
Temperature: 29.0°C (84°F)
Dewpoint: 26.0°C (79°F) [RH = 84%]
Pressure (altimeter): 29.82 inches Hg (1010.0 mb)
Winds: from the SSE (150 degrees) at 10 MPH (9 knots; 4.6 m/s)
Visibility: 6 or more miles (10+ km)
Ceiling: at least 12,000 feet AGL
Clouds: few clouds at 1900 feet AGL
Weather: no significant weather observed at this time

METAR text: RORY 071000Z AUTO 16008KT 9999 NCD 30/25 Q1010
Conditions at: RORY (YORON ISLAND , JP) observed 1000 UTC 07 August 2020
Temperature: 30.0°C (86°F)
Dewpoint: 25.0°C (77°F) [RH = 75%]
Pressure (altimeter): 29.82 inches Hg (1010.0 mb)
Winds: from the SSE (160 degrees) at 9 MPH (8 knots; 4.1 m/s)
Visibility: 6 or more miles (10+ km)
Ceiling: at least 12,000 feet AGL
Clouds: sky clear below 12,000 feet AGL
Weather: no significant weather observed at this time